sensor_id;sensor_type;location;lat;lon;timestamp;P1;durP1;ratioP1;P2;durP2;ratioP2
15990;SDS011;8100;50.994;4.538;2023-02-01T00:01:45;9.85;;;3.40;;
15990;SDS011;8100;50.994;4.538;2023-02-01T00:04:33;11.23;;;3.60;;
15990;SDS011;8100;50.994;4.538;2023-02-01T00:07:20;12.40;;;3.45;;
15990;SDS011;8100;50.994;4.538;2023-02-01T00:10:08;13.35;;;3.88;;
15990;SDS011;8100;50.994;4.538;2023-02-01T00:12:57;12.93;;;3.70;;
15990;SDS011;8100;50.994;4.538;2023-02-01T00:15:44;14.07;;;3.33;;
15990;SDS011;8100;50.994;4.538;2023-02-01T00:18:31;12.77;;;3.60;;
15990;SDS011;8100;50.994;4.538;2023-02-01T00:21:19;13.30;;;3.20;;
15990;SDS011;8100;50.994;4.538;2023-02-01T00:24:07;15.23;;;3.50;;
15990;SDS011;8100;50.994;4.538;2023-02-01T00:26:55;13.73;;;3.58;;
15990;SDS011;8100;50.994;4.538;2023-02-01T00:29:44;12.25;;;3.47;;
15990;SDS011;8100;50.994;4.538;2023-02-01T00:32:31;12.90;;;2.88;;
15990;SDS011;8100;50.994;4.538;2023-02-01T00:35:19;15.73;;;3.03;;
15990;SDS011;8100;50.994;4.538;2023-02-01T00:38:06;10.93;;;3.08;;
15990;SDS011;8100;50.994;4.538;2023-02-01T00:40:53;13.55;;;2.97;;
15990;SDS011;8100;50.994;4.538;2023-02-01T00:43:40;11.13;;;3.08;;
15990;SDS011;8100;50.994;4.538;2023-02-01T00:46:29;15.25;;;3.28;;
15990;SDS011;8100;50.994;4.538;2023-02-01T00:49:17;15.82;;;3.42;;
15990;SDS011;8100;50.994;4.538;2023-02-01T00:52:04;16.52;;;3.17;;
15990;SDS011;8100;50.994;4.538;2023-02-01T00:54:51;14.05;;;2.75;;
15990;SDS011;8100;50.994;4.538;2023-02-01T00:57:38;13.93;;;3.00;;
15990;SDS011;8100;50.994;4.538;2023-02-01T01:00:25;13.13;;;3.05;;
15990;SDS011;8100;50.994;4.538;2023-02-01T01:03:14;16.60;;;3.20;;
15990;SDS011;8100;50.994;4.538;2023-02-01T01:06:05;11.40;;;3.10;;
15990;SDS011;8100;50.994;4.538;2023-02-01T01:08:54;12.05;;;2.70;;
15990;SDS011;8100;50.994;4.538;2023-02-01T01:11:43;10.90;;;2.80;;
15990;SDS011;8100;50.994;4.538;2023-02-01T01:14:30;11.60;;;3.22;;
15990;SDS011;8100;50.994;4.538;2023-02-01T01:17:18;9.70;;;2.80;;
15990;SDS011;8100;50.994;4.538;2023-02-01T01:20:07;15.93;;;3.00;;
15990;SDS011;8100;50.994;4.538;2023-02-01T01:22:55;11.20;;;2.80;;
15990;SDS011;8100;50.994;4.538;2023-02-01T01:25:42;16.80;;;3.03;;
15990;SDS011;8100;50.994;4.538;2023-02-01T01:28:30;11.05;;;2.95;;
15990;SDS011;8100;50.994;4.538;2023-02-01T01:31:17;10.95;;;2.65;;
15990;SDS011;8100;50.994;4.538;2023-02-01T01:34:05;14.88;;;3.05;;
15990;SDS011;8100;50.994;4.538;2023-02-01T01:36:54;13.95;;;2.67;;
15990;SDS011;8100;50.994;4.538;2023-02-01T01:39:41;11.63;;;3.08;;
15990;SDS011;8100;50.994;4.538;2023-02-01T01:42:28;12.23;;;2.92;;
15990;SDS011;8100;50.994;4.538;2023-02-01T01:45:20;15.43;;;2.78;;
15990;SDS011;8100;50.994;4.538;2023-02-01T01:48:11;14.43;;;2.63;;
15990;SDS011;8100;50.994;4.538;2023-02-01T01:51:02;15.50;;;2.70;;
15990;SDS011;8100;50.994;4.538;2023-02-01T01:53:56;14.65;;;2.53;;
15990;SDS011;8100;50.994;4.538;2023-02-01T01:56:48;15.60;;;2.90;;
15990;SDS011;8100;50.994;4.538;2023-02-01T01:59:38;16.17;;;2.42;;
15990;SDS011;8100;50.994;4.538;2023-02-01T02:02:28;11.90;;;2.65;;
15990;SDS011;8100;50.994;4.538;2023-02-01T02:05:15;8.10;;;2.28;;
15990;SDS011;8100;50.994;4.538;2023-02-01T02:08:05;12.10;;;2.80;;
15990;SDS011;8100;50.994;4.538;2023-02-01T02:10:54;13.93;;;2.63;;
15990;SDS011;8100;50.994;4.538;2023-02-01T02:13:48;11.25;;;2.28;;
15990;SDS011;8100;50.994;4.538;2023-02-01T02:16:45;8.00;;;2.20;;
15990;SDS011;8100;50.994;4.538;2023-02-01T02:19:55;12.75;;;3.05;;
15990;SDS011;8100;50.994;4.538;2023-02-01T02:29:37;14.77;;;2.67;;
15990;SDS011;8100;50.994;4.538;2023-02-01T02:33:01;15.45;;;2.40;;
15990;SDS011;8100;50.994;4.538;2023-02-01T02:36:32;12.05;;;2.65;;
15990;SDS011;8100;50.994;4.538;2023-02-01T02:39:27;9.48;;;2.38;;
15990;SDS011;8100;50.994;4.538;2023-02-01T02:42:24;12.15;;;2.35;;
15990;SDS011;8100;50.994;4.538;2023-02-01T02:45:34;15.45;;;2.85;;
15990;SDS011;8100;50.994;4.538;2023-02-01T02:48:46;17.42;;;2.97;;
15990;SDS011;8100;50.994;4.538;2023-02-01T02:51:41;13.13;;;2.33;;
15990;SDS011;8100;50.994;4.538;2023-02-01T02:54:48;15.60;;;2.38;;
15990;SDS011;8100;50.994;4.538;2023-02-01T02:57:40;11.45;;;2.30;;
15990;SDS011;8100;50.994;4.538;2023-02-01T03:00:46;13.00;;;2.80;;
15990;SDS011;8100;50.994;4.538;2023-02-01T03:03:52;14.80;;;2.80;;
15990;SDS011;8100;50.994;4.538;2023-02-01T03:06:55;13.82;;;2.50;;
15990;SDS011;8100;50.994;4.538;2023-02-01T03:09:44;14.25;;;2.80;;
15990;SDS011;8100;50.994;4.538;2023-02-01T03:12:34;13.48;;;2.83;;
15990;SDS011;8100;50.994;4.538;2023-02-01T03:15:43;12.77;;;2.20;;
15990;SDS011;8100;50.994;4.538;2023-02-01T03:18:39;14.43;;;2.92;;
15990;SDS011;8100;50.994;4.538;2023-02-01T03:21:33;12.18;;;2.33;;
15990;SDS011;8100;50.994;4.538;2023-02-01T03:24:26;16.35;;;2.80;;
15990;SDS011;8100;50.994;4.538;2023-02-01T03:27:20;15.35;;;2.45;;
15990;SDS011;8100;50.994;4.538;2023-02-01T03:30:13;13.57;;;2.72;;
15990;SDS011;8100;50.994;4.538;2023-02-01T03:33:04;11.68;;;2.60;;
15990;SDS011;8100;50.994;4.538;2023-02-01T03:36:01;13.48;;;2.60;;
15990;SDS011;8100;50.994;4.538;2023-02-01T03:38:58;13.45;;;3.10;;
15990;SDS011;8100;50.994;4.538;2023-02-01T03:41:51;13.90;;;3.00;;
15990;SDS011;8100;50.994;4.538;2023-02-01T03:44:43;10.95;;;2.47;;
15990;SDS011;8100;50.994;4.538;2023-02-01T03:47:37;13.30;;;2.85;;
15990;SDS011;8100;50.994;4.538;2023-02-01T03:50:27;11.98;;;2.58;;
15990;SDS011;8100;50.994;4.538;2023-02-01T03:53:17;12.40;;;2.50;;
15990;SDS011;8100;50.994;4.538;2023-02-01T03:56:07;10.77;;;2.60;;
15990;SDS011;8100;50.994;4.538;2023-02-01T03:58:58;13.38;;;2.72;;
15990;SDS011;8100;50.994;4.538;2023-02-01T04:01:45;12.52;;;2.95;;
15990;SDS011;8100;50.994;4.538;2023-02-01T04:04:32;13.02;;;2.95;;
15990;SDS011;8100;50.994;4.538;2023-02-01T04:07:21;11.60;;;2.65;;
15990;SDS011;8100;50.994;4.538;2023-02-01T04:10:09;13.77;;;2.60;;
15990;SDS011;8100;50.994;4.538;2023-02-01T04:12:57;13.00;;;2.60;;
15990;SDS011;8100;50.994;4.538;2023-02-01T04:15:45;12.15;;;2.70;;
15990;SDS011;8100;50.994;4.538;2023-02-01T04:18:35;13.02;;;2.72;;
15990;SDS011;8100;50.994;4.538;2023-02-01T04:21:22;11.20;;;2.80;;
15990;SDS011;8100;50.994;4.538;2023-02-01T04:24:09;11.73;;;2.50;;
15990;SDS011;8100;50.994;4.538;2023-02-01T04:26:57;12.75;;;2.50;;
15990;SDS011;8100;50.994;4.538;2023-02-01T04:29:44;14.75;;;2.97;;
15990;SDS011;8100;50.994;4.538;2023-02-01T04:32:32;16.80;;;2.67;;
15990;SDS011;8100;50.994;4.538;2023-02-01T04:35:20;13.88;;;2.38;;
15990;SDS011;8100;50.994;4.538;2023-02-01T04:38:07;9.05;;;2.05;;
15990;SDS011;8100;50.994;4.538;2023-02-01T04:40:54;13.40;;;2.85;;
15990;SDS011;8100;50.994;4.538;2023-02-01T04:43:41;12.27;;;2.65;;
15990;SDS011;8100;50.994;4.538;2023-02-01T04:46:28;17.13;;;2.70;;
15990;SDS011;8100;50.994;4.538;2023-02-01T04:49:17;16.55;;;2.80;;
15990;SDS011;8100;50.994;4.538;2023-02-01T04:52:06;12.68;;;2.80;;
15990;SDS011;8100;50.994;4.538;2023-02-01T04:54:54;17.33;;;3.03;;
15990;SDS011;8100;50.994;4.538;2023-02-01T04:57:42;13.77;;;2.85;;
15990;SDS011;8100;50.994;4.538;2023-02-01T05:00:30;16.42;;;3.13;;
15990;SDS011;8100;50.994;4.538;2023-02-01T05:03:17;12.07;;;2.80;;
15990;SDS011;8100;50.994;4.538;2023-02-01T05:06:06;16.58;;;2.88;;
15990;SDS011;8100;50.994;4.538;2023-02-01T05:08:53;12.68;;;2.55;;
15990;SDS011;8100;50.994;4.538;2023-02-01T05:11:40;11.80;;;2.42;;
15990;SDS011;8100;50.994;4.538;2023-02-01T05:14:45;21.02;;;3.10;;
15990;SDS011;8100;50.994;4.538;2023-02-01T05:17:33;14.93;;;3.20;;
15990;SDS011;8100;50.994;4.538;2023-02-01T05:20:20;14.73;;;2.83;;
15990;SDS011;8100;50.994;4.538;2023-02-01T05:23:08;11.10;;;2.53;;
15990;SDS011;8100;50.994;4.538;2023-02-01T05:25:58;15.02;;;2.85;;
15990;SDS011;8100;50.994;4.538;2023-02-01T05:28:45;16.65;;;3.28;;
15990;SDS011;8100;50.994;4.538;2023-02-01T05:31:33;16.88;;;2.65;;
15990;SDS011;8100;50.994;4.538;2023-02-01T05:34:20;21.80;;;3.63;;
15990;SDS011;8100;50.994;4.538;2023-02-01T05:37:07;16.10;;;2.47;;
15990;SDS011;8100;50.994;4.538;2023-02-01T05:39:56;12.35;;;2.60;;
15990;SDS011;8100;50.994;4.538;2023-02-01T05:42:43;15.20;;;2.88;;
15990;SDS011;8100;50.994;4.538;2023-02-01T05:45:30;13.18;;;2.38;;
15990;SDS011;8100;50.994;4.538;2023-02-01T05:48:18;14.60;;;2.70;;
15990;SDS011;8100;50.994;4.538;2023-02-01T05:51:05;13.85;;;2.38;;
15990;SDS011;8100;50.994;4.538;2023-02-01T05:53:52;13.32;;;2.85;;
15990;SDS011;8100;50.994;4.538;2023-02-01T05:56:41;11.90;;;2.35;;
15990;SDS011;8100;50.994;4.538;2023-02-01T05:59:28;18.48;;;2.80;;
15990;SDS011;8100;50.994;4.538;2023-02-01T06:02:16;16.08;;;2.72;;
15990;SDS011;8100;50.994;4.538;2023-02-01T06:05:03;13.57;;;2.75;;
15990;SDS011;8100;50.994;4.538;2023-02-01T06:07:51;14.30;;;2.53;;
15990;SDS011;8100;50.994;4.538;2023-02-01T06:10:38;16.38;;;2.88;;
15990;SDS011;8100;50.994;4.538;2023-02-01T06:13:27;11.65;;;2.80;;
15990;SDS011;8100;50.994;4.538;2023-02-01T06:16:14;11.43;;;2.22;;
15990;SDS011;8100;50.994;4.538;2023-02-01T06:19:02;13.18;;;2.60;;
15990;SDS011;8100;50.994;4.538;2023-02-01T06:21:49;15.07;;;2.80;;
15990;SDS011;8100;50.994;4.538;2023-02-01T06:24:36;19.85;;;2.85;;
15990;SDS011;8100;50.994;4.538;2023-02-01T06:27:24;11.43;;;2.78;;
15990;SDS011;8100;50.994;4.538;2023-02-01T06:30:12;17.73;;;3.10;;
15990;SDS011;8100;50.994;4.538;2023-02-01T06:33:00;13.07;;;3.08;;
15990;SDS011;8100;50.994;4.538;2023-02-01T06:35:47;18.05;;;2.80;;
15990;SDS011;8100;50.994;4.538;2023-02-01T06:38:34;11.43;;;2.60;;
15990;SDS011;8100;50.994;4.538;2023-02-01T06:41:22;11.45;;;2.60;;
15990;SDS011;8100;50.994;4.538;2023-02-01T06:44:09;12.43;;;2.80;;
15990;SDS011;8100;50.994;4.538;2023-02-01T06:46:57;18.83;;;3.00;;
15990;SDS011;8100;50.994;4.538;2023-02-01T06:49:44;13.80;;;2.40;;
15990;SDS011;8100;50.994;4.538;2023-02-01T06:52:32;9.88;;;2.40;;
15990;SDS011;8100;50.994;4.538;2023-02-01T06:55:19;13.25;;;2.80;;
15990;SDS011;8100;50.994;4.538;2023-02-01T06:58:06;14.25;;;2.78;;
15990;SDS011;8100;50.994;4.538;2023-02-01T07:00:54;15.77;;;2.90;;
15990;SDS011;8100;50.994;4.538;2023-02-01T07:03:42;16.60;;;2.60;;
15990;SDS011;8100;50.994;4.538;2023-02-01T07:06:33;15.18;;;2.90;;
15990;SDS011;8100;50.994;4.538;2023-02-01T07:09:20;14.13;;;2.80;;
15990;SDS011;8100;50.994;4.538;2023-02-01T07:12:07;13.20;;;2.75;;
15990;SDS011;8100;50.994;4.538;2023-02-01T07:14:55;12.50;;;2.70;;
15990;SDS011;8100;50.994;4.538;2023-02-01T07:17:42;11.02;;;2.65;;
15990;SDS011;8100;50.994;4.538;2023-02-01T07:20:32;15.10;;;2.65;;
15990;SDS011;8100;50.994;4.538;2023-02-01T07:23:19;17.50;;;3.00;;
15990;SDS011;8100;50.994;4.538;2023-02-01T07:26:07;14.65;;;2.72;;
15990;SDS011;8100;50.994;4.538;2023-02-01T07:28:57;12.82;;;2.50;;
15990;SDS011;8100;50.994;4.538;2023-02-01T07:31:45;11.13;;;2.60;;
15990;SDS011;8100;50.994;4.538;2023-02-01T07:34:32;17.13;;;2.60;;
15990;SDS011;8100;50.994;4.538;2023-02-01T07:37:21;10.95;;;2.60;;
15990;SDS011;8100;50.994;4.538;2023-02-01T07:40:09;12.63;;;2.85;;
15990;SDS011;8100;50.994;4.538;2023-02-01T07:42:58;14.32;;;2.72;;
15990;SDS011;8100;50.994;4.538;2023-02-01T07:45:50;12.55;;;2.72;;
15990;SDS011;8100;50.994;4.538;2023-02-01T07:48:37;11.50;;;2.53;;
15990;SDS011;8100;50.994;4.538;2023-02-01T07:51:25;12.90;;;2.78;;
15990;SDS011;8100;50.994;4.538;2023-02-01T07:54:13;11.35;;;2.78;;
15990;SDS011;8100;50.994;4.538;2023-02-01T07:57:00;13.98;;;2.60;;
15990;SDS011;8100;50.994;4.538;2023-02-01T07:59:48;11.82;;;2.92;;
15990;SDS011;8100;50.994;4.538;2023-02-01T08:02:52;15.63;;;2.83;;
15990;SDS011;8100;50.994;4.538;2023-02-01T08:05:39;10.27;;;2.38;;
15990;SDS011;8100;50.994;4.538;2023-02-01T08:08:27;13.23;;;2.60;;
15990;SDS011;8100;50.994;4.538;2023-02-01T08:11:15;13.85;;;2.50;;
15990;SDS011;8100;50.994;4.538;2023-02-01T08:14:03;13.85;;;2.38;;
15990;SDS011;8100;50.994;4.538;2023-02-01T08:16:51;15.10;;;2.83;;
15990;SDS011;8100;50.994;4.538;2023-02-01T08:19:39;8.23;;;2.03;;
15990;SDS011;8100;50.994;4.538;2023-02-01T08:22:26;14.50;;;2.60;;
15990;SDS011;8100;50.994;4.538;2023-02-01T08:25:18;13.65;;;2.67;;
15990;SDS011;8100;50.994;4.538;2023-02-01T08:28:07;14.38;;;2.40;;
15990;SDS011;8100;50.994;4.538;2023-02-01T08:30:54;15.15;;;3.05;;
15990;SDS011;8100;50.994;4.538;2023-02-01T08:33:41;16.20;;;2.95;;
15990;SDS011;8100;50.994;4.538;2023-02-01T08:36:30;16.60;;;3.35;;
15990;SDS011;8100;50.994;4.538;2023-02-01T08:39:18;15.23;;;2.90;;
15990;SDS011;8100;50.994;4.538;2023-02-01T08:42:05;10.88;;;2.45;;
15990;SDS011;8100;50.994;4.538;2023-02-01T08:45:11;13.95;;;2.53;;
15990;SDS011;8100;50.994;4.538;2023-02-01T08:47:59;14.00;;;3.05;;
15990;SDS011;8100;50.994;4.538;2023-02-01T08:50:46;12.07;;;2.88;;
15990;SDS011;8100;50.994;4.538;2023-02-01T08:53:33;12.48;;;2.90;;
15990;SDS011;8100;50.994;4.538;2023-02-01T08:56:21;15.63;;;3.17;;
15990;SDS011;8100;50.994;4.538;2023-02-01T08:59:08;12.07;;;2.72;;
15990;SDS011;8100;50.994;4.538;2023-02-01T09:01:57;12.10;;;2.47;;
15990;SDS011;8100;50.994;4.538;2023-02-01T09:04:44;13.45;;;2.88;;
15990;SDS011;8100;50.994;4.538;2023-02-01T09:07:31;17.55;;;2.95;;
15990;SDS011;8100;50.994;4.538;2023-02-01T09:10:19;11.50;;;2.35;;
15990;SDS011;8100;50.994;4.538;2023-02-01T09:13:06;16.55;;;3.22;;
15990;SDS011;8100;50.994;4.538;2023-02-01T09:15:54;12.45;;;3.17;;
15990;SDS011;8100;50.994;4.538;2023-02-01T09:18:42;19.17;;;2.88;;
15990;SDS011;8100;50.994;4.538;2023-02-01T09:21:29;15.20;;;2.80;;
15990;SDS011;8100;50.994;4.538;2023-02-01T09:24:17;13.30;;;2.75;;
15990;SDS011;8100;50.994;4.538;2023-02-01T09:27:04;10.15;;;2.67;;
15990;SDS011;8100;50.994;4.538;2023-02-01T09:29:51;11.15;;;2.83;;
15990;SDS011;8100;50.994;4.538;2023-02-01T09:32:38;16.20;;;2.50;;
15990;SDS011;8100;50.994;4.538;2023-02-01T09:35:27;10.68;;;2.60;;
15990;SDS011;8100;50.994;4.538;2023-02-01T09:38:14;14.80;;;2.85;;
15990;SDS011;8100;50.994;4.538;2023-02-01T09:41:06;16.67;;;3.13;;
15990;SDS011;8100;50.994;4.538;2023-02-01T09:44:04;13.32;;;2.25;;
15990;SDS011;8100;50.994;4.538;2023-02-01T09:47:02;18.58;;;2.90;;
15990;SDS011;8100;50.994;4.538;2023-02-01T09:49:51;15.68;;;2.70;;
15990;SDS011;8100;50.994;4.538;2023-02-01T09:52:44;15.30;;;3.08;;
15990;SDS011;8100;50.994;4.538;2023-02-01T09:55:38;12.77;;;2.35;;
15990;SDS011;8100;50.994;4.538;2023-02-01T09:58:29;14.88;;;2.45;;
15990;SDS011;8100;50.994;4.538;2023-02-01T10:01:22;11.77;;;2.45;;
15990;SDS011;8100;50.994;4.538;2023-02-01T10:04:12;17.83;;;3.25;;
15990;SDS011;8100;50.994;4.538;2023-02-01T10:07:06;14.50;;;2.70;;
15990;SDS011;8100;50.994;4.538;2023-02-01T10:10:02;9.90;;;2.47;;
15990;SDS011;8100;50.994;4.538;2023-02-01T10:13:05;10.45;;;2.25;;
15990;SDS011;8100;50.994;4.538;2023-02-01T10:16:15;14.20;;;2.67;;
15990;SDS011;8100;50.994;4.538;2023-02-01T10:19:15;13.90;;;2.63;;
15990;SDS011;8100;50.994;4.538;2023-02-01T10:22:23;16.80;;;2.72;;
15990;SDS011;8100;50.994;4.538;2023-02-01T10:25:22;12.18;;;2.88;;
15990;SDS011;8100;50.994;4.538;2023-02-01T10:28:13;19.85;;;2.90;;
15990;SDS011;8100;50.994;4.538;2023-02-01T10:31:03;11.30;;;2.58;;
15990;SDS011;8100;50.994;4.538;2023-02-01T10:33:53;13.85;;;2.67;;
15990;SDS011;8100;50.994;4.538;2023-02-01T10:36:46;11.55;;;2.45;;
15990;SDS011;8100;50.994;4.538;2023-02-01T10:39:39;11.98;;;2.30;;
15990;SDS011;8100;50.994;4.538;2023-02-01T10:42:28;12.20;;;2.58;;
15990;SDS011;8100;50.994;4.538;2023-02-01T10:45:19;10.80;;;2.22;;
15990;SDS011;8100;50.994;4.538;2023-02-01T10:48:08;11.60;;;2.45;;
15990;SDS011;8100;50.994;4.538;2023-02-01T10:50:57;16.58;;;2.10;;
15990;SDS011;8100;50.994;4.538;2023-02-01T10:53:48;14.48;;;2.50;;
15990;SDS011;8100;50.994;4.538;2023-02-01T10:56:38;17.90;;;2.55;;
15990;SDS011;8100;50.994;4.538;2023-02-01T10:59:28;10.10;;;2.35;;
15990;SDS011;8100;50.994;4.538;2023-02-01T11:02:20;16.50;;;2.65;;
15990;SDS011;8100;50.994;4.538;2023-02-01T11:05:13;12.85;;;2.42;;
15990;SDS011;8100;50.994;4.538;2023-02-01T11:08:01;10.60;;;2.38;;
15990;SDS011;8100;50.994;4.538;2023-02-01T11:10:56;18.77;;;2.15;;
15990;SDS011;8100;50.994;4.538;2023-02-01T11:13:45;8.93;;;1.95;;
15990;SDS011;8100;50.994;4.538;2023-02-01T11:16:41;10.38;;;2.10;;
15990;SDS011;8100;50.994;4.538;2023-02-01T11:19:34;10.85;;;2.17;;
15990;SDS011;8100;50.994;4.538;2023-02-01T11:22:21;15.90;;;2.22;;
15990;SDS011;8100;50.994;4.538;2023-02-01T11:25:12;10.43;;;2.00;;
15990;SDS011;8100;50.994;4.538;2023-02-01T11:28:02;14.65;;;2.30;;
15990;SDS011;8100;50.994;4.538;2023-02-01T11:30:49;11.23;;;2.10;;
15990;SDS011;8100;50.994;4.538;2023-02-01T11:33:44;13.57;;;2.30;;
15990;SDS011;8100;50.994;4.538;2023-02-01T11:36:35;7.82;;;1.67;;
15990;SDS011;8100;50.994;4.538;2023-02-01T11:39:24;13.93;;;2.22;;
15990;SDS011;8100;50.994;4.538;2023-02-01T11:42:15;11.35;;;2.13;;
15990;SDS011;8100;50.994;4.538;2023-02-01T11:45:16;10.15;;;1.60;;
15990;SDS011;8100;50.994;4.538;2023-02-01T11:48:07;8.23;;;1.50;;
15990;SDS011;8100;50.994;4.538;2023-02-01T11:51:00;11.15;;;1.77;;
15990;SDS011;8100;50.994;4.538;2023-02-01T11:54:12;11.23;;;1.92;;
15990;SDS011;8100;50.994;4.538;2023-02-01T12:07:09;6.40;;;1.40;;
15990;SDS011;8100;50.994;4.538;2023-02-01T12:10:06;10.70;;;1.80;;
15990;SDS011;8100;50.994;4.538;2023-02-01T12:13:09;9.23;;;2.05;;
15990;SDS011;8100;50.994;4.538;2023-02-01T12:16:07;12.30;;;1.80;;
15990;SDS011;8100;50.994;4.538;2023-02-01T12:22:24;10.82;;;1.88;;
15990;SDS011;8100;50.994;4.538;2023-02-01T12:25:23;10.00;;;1.52;;
15990;SDS011;8100;50.994;4.538;2023-02-01T12:28:30;8.38;;;1.70;;
15990;SDS011;8100;50.994;4.538;2023-02-01T12:31:34;10.02;;;1.67;;
15990;SDS011;8100;50.994;4.538;2023-02-01T12:34:40;10.30;;;1.95;;
15990;SDS011;8100;50.994;4.538;2023-02-01T12:37:53;14.88;;;1.90;;
15990;SDS011;8100;50.994;4.538;2023-02-01T12:40:57;10.00;;;1.33;;
15990;SDS011;8100;50.994;4.538;2023-02-01T12:43:53;8.57;;;1.45;;
15990;SDS011;8100;50.994;4.538;2023-02-01T12:46:43;6.57;;;1.35;;
15990;SDS011;8100;50.994;4.538;2023-02-01T12:49:38;10.38;;;1.25;;
15990;SDS011;8100;50.994;4.538;2023-02-01T12:52:34;9.05;;;1.95;;
15990;SDS011;8100;50.994;4.538;2023-02-01T12:55:28;7.85;;;1.63;;
15990;SDS011;8100;50.994;4.538;2023-02-01T12:58:23;5.35;;;1.60;;
15990;SDS011;8100;50.994;4.538;2023-02-01T13:01:15;6.70;;;1.52;;
15990;SDS011;8100;50.994;4.538;2023-02-01T13:04:10;12.10;;;1.50;;
15990;SDS011;8100;50.994;4.538;2023-02-01T13:07:05;7.97;;;1.50;;
15990;SDS011;8100;50.994;4.538;2023-02-01T13:09:59;5.07;;;1.50;;
15990;SDS011;8100;50.994;4.538;2023-02-01T13:12:51;6.53;;;1.42;;
15990;SDS011;8100;50.994;4.538;2023-02-01T13:15:43;8.80;;;1.98;;
15990;SDS011;8100;50.994;4.538;2023-02-01T13:18:34;7.18;;;1.52;;
15990;SDS011;8100;50.994;4.538;2023-02-01T13:21:25;7.38;;;1.20;;
15990;SDS011;8100;50.994;4.538;2023-02-01T13:24:20;6.53;;;1.08;;
15990;SDS011;8100;50.994;4.538;2023-02-01T13:27:17;10.15;;;1.55;;
15990;SDS011;8100;50.994;4.538;2023-02-01T13:30:07;5.60;;;1.15;;
15990;SDS011;8100;50.994;4.538;2023-02-01T13:33:11;10.05;;;1.50;;
15990;SDS011;8100;50.994;4.538;2023-02-01T13:36:20;7.00;;;1.10;;
15990;SDS011;8100;50.994;4.538;2023-02-01T13:42:41;7.55;;;1.45;;
15990;SDS011;8100;50.994;4.538;2023-02-01T13:45:35;10.27;;;1.60;;
15990;SDS011;8100;50.994;4.538;2023-02-01T13:48:32;9.88;;;1.45;;
15990;SDS011;8100;50.994;4.538;2023-02-01T13:54:36;9.43;;;1.60;;
15990;SDS011;8100;50.994;4.538;2023-02-01T13:57:32;9.75;;;1.52;;
15990;SDS011;8100;50.994;4.538;2023-02-01T14:00:23;11.80;;;1.83;;
15990;SDS011;8100;50.994;4.538;2023-02-01T14:03:18;11.77;;;1.75;;
15990;SDS011;8100;50.994;4.538;2023-02-01T14:06:17;8.07;;;1.55;;
15990;SDS011;8100;50.994;4.538;2023-02-01T14:09:31;7.25;;;1.55;;
15990;SDS011;8100;50.994;4.538;2023-02-01T14:15:29;9.82;;;1.65;;
15990;SDS011;8100;50.994;4.538;2023-02-01T14:21:49;7.75;;;1.95;;
15990;SDS011;8100;50.994;4.538;2023-02-01T14:24:42;5.45;;;1.50;;
15990;SDS011;8100;50.994;4.538;2023-02-01T14:27:39;8.93;;;1.35;;
15990;SDS011;8100;50.994;4.538;2023-02-01T14:30:26;11.85;;;1.73;;
15990;SDS011;8100;50.994;4.538;2023-02-01T14:33:20;11.60;;;2.10;;
15990;SDS011;8100;50.994;4.538;2023-02-01T14:36:12;6.40;;;1.58;;
15990;SDS011;8100;50.994;4.538;2023-02-01T14:39:01;7.28;;;1.50;;
15990;SDS011;8100;50.994;4.538;2023-02-01T14:41:51;8.27;;;1.50;;
15990;SDS011;8100;50.994;4.538;2023-02-01T14:44:41;12.02;;;1.80;;
15990;SDS011;8100;50.994;4.538;2023-02-01T14:47:30;12.68;;;1.90;;
15990;SDS011;8100;50.994;4.538;2023-02-01T14:50:22;10.85;;;1.75;;
15990;SDS011;8100;50.994;4.538;2023-02-01T14:53:20;9.45;;;1.98;;
15990;SDS011;8100;50.994;4.538;2023-02-01T14:56:12;7.78;;;1.80;;
15990;SDS011;8100;50.994;4.538;2023-02-01T14:59:07;7.45;;;1.65;;
15990;SDS011;8100;50.994;4.538;2023-02-01T15:02:01;12.40;;;1.90;;
15990;SDS011;8100;50.994;4.538;2023-02-01T15:05:01;9.00;;;1.88;;
15990;SDS011;8100;50.994;4.538;2023-02-01T15:08:11;9.25;;;1.77;;
15990;SDS011;8100;50.994;4.538;2023-02-01T15:11:06;9.25;;;1.70;;
15990;SDS011;8100;50.994;4.538;2023-02-01T15:13:57;10.00;;;1.77;;
15990;SDS011;8100;50.994;4.538;2023-02-01T15:16:45;10.70;;;1.65;;
15990;SDS011;8100;50.994;4.538;2023-02-01T15:19:39;14.10;;;1.70;;
15990;SDS011;8100;50.994;4.538;2023-02-01T15:22:38;11.15;;;1.88;;
15990;SDS011;8100;50.994;4.538;2023-02-01T15:25:26;10.07;;;1.52;;
15990;SDS011;8100;50.994;4.538;2023-02-01T15:28:16;11.90;;;1.85;;
15990;SDS011;8100;50.994;4.538;2023-02-01T15:31:04;9.82;;;2.13;;
15990;SDS011;8100;50.994;4.538;2023-02-01T15:33:55;12.60;;;1.77;;
15990;SDS011;8100;50.994;4.538;2023-02-01T15:36:44;7.30;;;1.70;;
15990;SDS011;8100;50.994;4.538;2023-02-01T15:39:32;12.75;;;2.10;;
15990;SDS011;8100;50.994;4.538;2023-02-01T15:42:20;9.02;;;1.67;;
15990;SDS011;8100;50.994;4.538;2023-02-01T15:45:16;9.57;;;1.85;;
15990;SDS011;8100;50.994;4.538;2023-02-01T15:48:05;13.20;;;2.20;;
15990;SDS011;8100;50.994;4.538;2023-02-01T15:50:52;12.15;;;2.00;;
15990;SDS011;8100;50.994;4.538;2023-02-01T15:53:43;11.77;;;2.03;;
15990;SDS011;8100;50.994;4.538;2023-02-01T15:56:33;9.63;;;2.03;;
15990;SDS011;8100;50.994;4.538;2023-02-01T15:59:22;14.57;;;2.38;;
15990;SDS011;8100;50.994;4.538;2023-02-01T16:05:31;8.23;;;1.80;;
15990;SDS011;8100;50.994;4.538;2023-02-01T16:08:21;14.55;;;2.17;;
15990;SDS011;8100;50.994;4.538;2023-02-01T16:11:21;11.65;;;1.83;;
15990;SDS011;8100;50.994;4.538;2023-02-01T16:14:10;13.13;;;2.28;;
15990;SDS011;8100;50.994;4.538;2023-02-01T16:16:58;8.77;;;1.70;;
15990;SDS011;8100;50.994;4.538;2023-02-01T16:19:47;13.20;;;2.05;;
15990;SDS011;8100;50.994;4.538;2023-02-01T16:22:34;12.20;;;2.25;;
15990;SDS011;8100;50.994;4.538;2023-02-01T16:25:21;13.38;;;2.22;;
15990;SDS011;8100;50.994;4.538;2023-02-01T16:28:08;12.75;;;2.45;;
15990;SDS011;8100;50.994;4.538;2023-02-01T16:30:55;9.77;;;2.10;;
15990;SDS011;8100;50.994;4.538;2023-02-01T16:33:43;9.80;;;2.40;;
15990;SDS011;8100;50.994;4.538;2023-02-01T16:36:31;10.07;;;2.15;;
15990;SDS011;8100;50.994;4.538;2023-02-01T16:39:19;6.57;;;1.60;;
15990;SDS011;8100;50.994;4.538;2023-02-01T16:42:09;14.60;;;2.30;;
15990;SDS011;8100;50.994;4.538;2023-02-01T16:44:58;9.38;;;2.22;;
15990;SDS011;8100;50.994;4.538;2023-02-01T16:47:46;13.60;;;2.28;;
15990;SDS011;8100;50.994;4.538;2023-02-01T16:50:36;11.45;;;2.35;;
15990;SDS011;8100;50.994;4.538;2023-02-01T16:53:25;11.70;;;2.72;;
15990;SDS011;8100;50.994;4.538;2023-02-01T16:56:15;12.93;;;2.42;;
15990;SDS011;8100;50.994;4.538;2023-02-01T16:59:04;9.60;;;2.03;;
15990;SDS011;8100;50.994;4.538;2023-02-01T17:01:52;11.70;;;2.25;;
15990;SDS011;8100;50.994;4.538;2023-02-01T17:04:39;9.07;;;1.75;;
15990;SDS011;8100;50.994;4.538;2023-02-01T17:07:26;12.77;;;2.28;;
15990;SDS011;8100;50.994;4.538;2023-02-01T17:10:17;11.60;;;2.00;;
15990;SDS011;8100;50.994;4.538;2023-02-01T17:13:11;11.35;;;2.20;;
15990;SDS011;8100;50.994;4.538;2023-02-01T17:16:01;8.15;;;2.00;;
15990;SDS011;8100;50.994;4.538;2023-02-01T17:18:52;8.13;;;1.90;;
15990;SDS011;8100;50.994;4.538;2023-02-01T17:21:43;12.65;;;2.40;;
15990;SDS011;8100;50.994;4.538;2023-02-01T17:24:33;10.73;;;3.05;;
15990;SDS011;8100;50.994;4.538;2023-02-01T17:27:22;11.25;;;2.58;;
15990;SDS011;8100;50.994;4.538;2023-02-01T17:30:10;10.65;;;2.38;;
15990;SDS011;8100;50.994;4.538;2023-02-01T17:32:58;10.68;;;2.10;;
15990;SDS011;8100;50.994;4.538;2023-02-01T17:35:45;14.88;;;2.58;;
15990;SDS011;8100;50.994;4.538;2023-02-01T17:38:34;13.38;;;2.47;;
15990;SDS011;8100;50.994;4.538;2023-02-01T17:41:22;13.35;;;2.58;;
15990;SDS011;8100;50.994;4.538;2023-02-01T17:44:10;11.65;;;2.30;;
15990;SDS011;8100;50.994;4.538;2023-02-01T17:46:58;12.43;;;2.33;;
15990;SDS011;8100;50.994;4.538;2023-02-01T17:49:45;13.50;;;2.60;;
15990;SDS011;8100;50.994;4.538;2023-02-01T17:52:35;15.00;;;2.70;;